Time;durP1;ratioP1;P1;durP2;ratioP2;P2;SDS_P1;SDS_P2;PMS_P1;PMS_P2;Temp;Humidity;BMP_temperature;BMP_pressure;BME280_temperature;BME280_humidity;BME280_pressure;Samples;Min_cycle;Max_cycle;Signal;HPM_P1;HPM_P2
2022/12/31 00:02:21;;;;;;;1.00;0.83;;;10.40;99.90;;;;;;4991690;28;20770;-72
2022/12/31 00:04:53;;;;;;;1.20;1.00;;;10.40;99.90;;;;;;4989748;28;20484;-72
2022/12/31 00:07:19;;;;;;;1.23;0.90;;;10.50;99.90;;;;;;4992871;28;20405;-72
2022/12/31 00:09:47;;;;;;;1.67;1.17;;;10.40;99.90;;;;;;4992837;28;20402;-73
2022/12/31 00:12:15;;;;;;;2.73;1.27;;;10.50;99.90;;;;;;5000950;28;20424;-73
2022/12/31 00:14:45;;;;;;;1.47;1.27;;;10.50;99.90;;;;;;4998833;28;20467;-73
2022/12/31 00:17:14;;;;;;;1.20;1.00;;;10.50;99.90;;;;;;5015094;28;21003;-73
2022/12/31 00:19:45;;;;;;;0.97;0.73;;;10.50;99.90;;;;;;5014977;28;20400;-73
2022/12/31 00:22:14;;;;;;;1.50;0.90;;;10.50;99.90;;;;;;4987649;28;20446;-73
2022/12/31 00:24:40;;;;;;;1.20;1.00;;;10.60;99.90;;;;;;4976085;28;20432;-73
2022/12/31 00:27:10;;;;;;;1.47;0.80;;;10.60;99.90;;;;;;4981246;28;20430;-73
2022/12/31 00:29:38;;;;;;;1.30;1.10;;;10.60;99.90;;;;;;5014992;28;20448;-72
2022/12/31 00:32:05;;;;;;;1.00;0.80;;;10.60;99.90;;;;;;5014794;28;20448;-72
2022/12/31 00:34:31;;;;;;;0.97;0.80;;;10.60;99.90;;;;;;5016115;28;20480;-72
2022/12/31 00:37:03;;;;;;;0.90;0.70;;;10.60;99.90;;;;;;5014862;28;20408;-73
2022/12/31 00:39:32;;;;;;;1.77;1.13;;;10.60;99.90;;;;;;5014767;28;20405;-73
2022/12/31 00:42:03;;;;;;;2.20;1.50;;;10.60;99.90;;;;;;5014533;28;20506;-73
2022/12/31 00:44:28;;;;;;;2.53;0.90;;;10.60;99.90;;;;;;5014642;28;20522;-73
2022/12/31 00:46:54;;;;;;;2.23;1.03;;;10.60;99.90;;;;;;5016491;28;20492;-72
2022/12/31 00:49:23;;;;;;;1.07;0.97;;;10.60;99.90;;;;;;5015800;28;20462;-73
2022/12/31 00:51:49;;;;;;;1.97;0.80;;;10.60;99.90;;;;;;5015794;28;20443;-73
2022/12/31 00:54:15;;;;;;;1.77;0.80;;;10.60;99.90;;;;;;5014315;28;20503;-73
2022/12/31 00:56:43;;;;;;;1.00;0.90;;;10.60;99.90;;;;;;5014603;28;20451;-72
2022/12/31 00:59:11;;;;;;;0.90;0.67;;;10.60;99.90;;;;;;4998079;28;20444;-73
2022/12/31 01:01:42;;;;;;;1.30;1.00;;;10.60;99.90;;;;;;4998438;28;20471;-73
2022/12/31 01:04:17;;;;;;;1.07;0.80;;;10.60;99.90;;;;;;4993869;28;20445;-73
2022/12/31 01:06:43;;;;;;;1.10;0.87;;;10.60;99.90;;;;;;4980218;28;20784;-73
2022/12/31 01:09:14;;;;;;;1.23;0.90;;;10.60;99.90;;;;;;4997715;28;20432;-72
2022/12/31 01:11:40;;;;;;;0.80;0.60;;;10.60;99.90;;;;;;5013995;28;20898;-73
2022/12/31 01:14:12;;;;;;;3.10;0.80;;;10.60;99.90;;;;;;5006369;28;20457;-72
2022/12/31 01:16:45;;;;;;;0.90;0.73;;;10.60;99.90;;;;;;4995299;28;20436;-69
2022/12/31 01:19:20;;;;;;;0.80;0.60;;;10.70;99.90;;;;;;4992726;28;20418;-69
2022/12/31 01:21:50;;;;;;;0.83;0.70;;;10.70;99.90;;;;;;4978723;28;20402;-69
2022/12/31 01:24:18;;;;;;;1.77;0.90;;;10.70;99.90;;;;;;4978680;28;20956;-69
2022/12/31 01:26:46;;;;;;;1.30;1.03;;;10.70;99.90;;;;;;4992468;28;20442;-69
2022/12/31 01:29:13;;;;;;;1.03;0.77;;;10.70;99.90;;;;;;4965388;28;20493;-69
2022/12/31 01:31:44;;;;;;;1.00;0.90;;;10.70;99.90;;;;;;4962505;28;20783;-69
2022/12/31 01:34:10;;;;;;;1.20;0.90;;;10.70;99.90;;;;;;5002306;28;20526;-69
2022/12/31 01:36:37;;;;;;;0.80;0.60;;;10.70;99.90;;;;;;5011488;28;20404;-69
2022/12/31 01:39:10;;;;;;;1.10;0.77;;;10.70;99.90;;;;;;4994805;28;20448;-69
2022/12/31 01:41:42;;;;;;;0.90;0.70;;;10.70;99.90;;;;;;4994470;28;20438;-69
2022/12/31 01:44:11;;;;;;;2.87;0.90;;;10.80;99.90;;;;;;4994390;28;20452;-69
2022/12/31 01:46:54;;;;;;;1.13;1.00;;;10.80;99.90;;;;;;4994405;28;20887;-69
2022/12/31 01:49:39;;;;;;;1.03;0.73;;;10.80;99.90;;;;;;4987833;28;20458;-69
2022/12/31 01:52:19;;;;;;;1.57;1.00;;;10.80;99.90;;;;;;4959140;28;20525;-69
2022/12/31 01:54:56;;;;;;;1.43;0.90;;;10.80;99.90;;;;;;4974762;28;20516;-69
2022/12/31 01:57:24;;;;;;;2.00;1.23;;;10.80;99.90;;;;;;4966711;28;20432;-69
2022/12/31 01:59:51;;;;;;;1.10;0.83;;;10.80;99.90;;;;;;5010209;28;20802;-68
2022/12/31 02:02:17;;;;;;;1.13;0.80;;;10.80;99.90;;;;;;4998216;28;20511;-68
2022/12/31 02:04:46;;;;;;;1.43;1.10;;;10.80;99.90;;;;;;4984689;28;20801;-69
2022/12/31 02:07:12;;;;;;;1.77;1.10;;;10.80;99.90;;;;;;5013776;28;20926;-69
2022/12/31 02:09:44;;;;;;;1.10;1.00;;;10.80;99.90;;;;;;5004991;28;20426;-69
2022/12/31 02:12:14;;;;;;;1.10;0.70;;;10.80;99.90;;;;;;4974754;28;20426;-68
2022/12/31 02:14:47;;;;;;;1.27;1.17;;;10.80;99.90;;;;;;4974488;28;20462;-69
2022/12/31 02:17:34;;;;;;;1.10;0.73;;;10.90;99.90;;;;;;4975565;28;20434;-69
2022/12/31 02:20:29;;;;;;;1.50;1.00;;;10.90;99.90;;;;;;4975540;28;20911;-69
2022/12/31 02:23:20;;;;;;;1.47;0.70;;;10.90;99.90;;;;;;4986753;28;20990;-69
2022/12/31 02:25:54;;;;;;;0.70;0.50;;;10.90;99.90;;;;;;4974872;28;20434;-69
2022/12/31 02:28:48;;;;;;;1.23;0.63;;;10.90;99.90;;;;;;4986846;28;20808;-69
2022/12/31 02:31:49;;;;;;;1.57;0.70;;;10.90;99.90;;;;;;4977350;28;20834;-69
2022/12/31 02:34:30;;;;;;;2.40;0.87;;;11.00;99.90;;;;;;4992633;28;20460;-69
2022/12/31 02:36:59;;;;;;;2.10;0.50;;;11.00;99.90;;;;;;4993689;28;20441;-69
2022/12/31 02:39:25;;;;;;;1.10;0.67;;;11.00;99.90;;;;;;4993506;28;20397;-69
2022/12/31 02:41:52;;;;;;;0.70;0.50;;;11.00;99.90;;;;;;4994550;28;20604;-69
2022/12/31 02:44:30;;;;;;;0.90;0.60;;;11.10;99.90;;;;;;4977349;28;20468;-69
2022/12/31 02:47:08;;;;;;;0.73;0.53;;;11.10;99.90;;;;;;4994511;28;20462;-69
2022/12/31 02:50:04;;;;;;;1.83;0.60;;;11.10;99.90;;;;;;4977105;28;20499;-69
2022/12/31 02:52:53;;;;;;;1.20;0.80;;;11.10;99.90;;;;;;4995653;28;20448;-69
2022/12/31 02:55:35;;;;;;;0.73;0.53;;;11.10;99.90;;;;;;5012724;28;20579;-69
2022/12/31 03:02:12;;;;;;;0.77;0.50;;;11.20;99.90;;;;;;5002797;28;20536;-68
2022/12/31 03:06:53;;;;;;;0.67;0.47;;;11.20;99.90;;;;;;5013854;28;20906;-69
2022/12/31 03:09:24;;;;;;;0.90;0.60;;;11.20;99.90;;;;;;4996014;28;20474;-69
2022/12/31 03:14:39;;;;;;;0.70;0.50;;;11.30;99.90;;;;;;4993288;28;20476;-68
2022/12/31 03:17:05;;;;;;;0.80;0.60;;;11.30;99.90;;;;;;4992692;28;20923;-69
2022/12/31 03:22:27;;;;;;;1.00;0.70;;;11.30;99.90;;;;;;4973377;28;20411;-69
2022/12/31 03:27:46;;;;;;;0.90;0.60;;;11.40;99.90;;;;;;4992364;28;20451;-69
2022/12/31 03:30:16;;;;;;;1.63;0.60;;;11.40;99.90;;;;;;4996432;28;20518;-69
2022/12/31 03:32:47;;;;;;;0.93;0.70;;;11.40;99.90;;;;;;4995935;28;20463;-69
2022/12/31 03:35:15;;;;;;;0.90;0.50;;;11.40;99.90;;;;;;4977378;28;20539;-69
2022/12/31 03:37:47;;;;;;;0.90;0.40;;;11.50;99.90;;;;;;4977214;28;20846;-69
2022/12/31 03:40:14;;;;;;;0.90;0.50;;;11.40;99.90;;;;;;4976367;28;20797;-69
2022/12/31 03:42:41;;;;;;;1.43;0.50;;;11.50;99.90;;;;;;4994783;28;20452;-69
2022/12/31 03:45:11;;;;;;;2.00;0.50;;;11.50;99.90;;;;;;4995824;28;20922;-69
2022/12/31 03:47:37;;;;;;;3.13;0.60;;;11.50;99.90;;;;;;5012177;28;20886;-69
2022/12/31 03:50:07;;;;;;;1.00;0.60;;;11.50;99.90;;;;;;4995966;28;20457;-69
2022/12/31 03:52:37;;;;;;;2.03;0.60;;;11.50;99.90;;;;;;5012275;28;20447;-69
2022/12/31 03:55:07;;;;;;;2.40;0.50;;;11.50;99.90;;;;;;5013157;28;20530;-69
2022/12/31 03:57:33;;;;;;;0.60;0.40;;;11.60;99.90;;;;;;5011989;28;20982;-69
2022/12/31 04:00:03;;;;;;;1.20;0.70;;;11.60;99.90;;;;;;4985379;28;20426;-69
2022/12/31 04:02:32;;;;;;;0.90;0.50;;;11.60;99.90;;;;;;4993238;28;20955;-69
2022/12/31 04:05:01;;;;;;;3.43;0.50;;;11.60;99.90;;;;;;5059683;23;20535;-74
2022/12/31 04:07:27;;;;;;;0.80;0.50;;;11.60;99.90;;;;;;4959903;28;20978;-75
2022/12/31 04:09:53;;;;;;;1.07;0.57;;;11.60;99.90;;;;;;4991895;28;20436;-75
2022/12/31 04:12:21;;;;;;;1.00;0.70;;;11.70;99.90;;;;;;4993171;28;20398;-74
2022/12/31 04:14:47;;;;;;;2.57;0.60;;;11.70;99.90;;;;;;4975413;28;20455;-75
2022/12/31 04:17:15;;;;;;;0.80;0.60;;;11.70;99.90;;;;;;4992571;28;20765;-74
2022/12/31 04:19:41;;;;;;;2.63;0.80;;;11.70;99.90;;;;;;4992144;28;20567;-74
2022/12/31 04:22:07;;;;;;;1.40;0.80;;;11.70;99.90;;;;;;4977340;28;20919;-74
2022/12/31 04:24:36;;;;;;;3.87;0.73;;;11.80;99.90;;;;;;4972593;28;20993;-75
2022/12/31 04:27:04;;;;;;;3.53;0.70;;;11.80;99.90;;;;;;4982510;28;20437;-75
2022/12/31 04:29:32;;;;;;;1.67;1.10;;;11.70;99.90;;;;;;4993019;28;20405;-74
2022/12/31 04:32:00;;;;;;;3.90;2.10;;;11.80;99.90;;;;;;4960454;28;20410;-74
2022/12/31 04:34:29;;;;;;;1.30;0.60;;;11.80;99.90;;;;;;4991768;28;20550;-75
2022/12/31 04:36:59;;;;;;;1.00;0.50;;;11.80;99.90;;;;;;4993066;28;20477;-75
2022/12/31 04:39:28;;;;;;;1.43;0.50;;;11.80;99.90;;;;;;4993013;28;20477;-75
2022/12/31 04:41:54;;;;;;;1.27;0.50;;;11.80;99.90;;;;;;4990868;28;20429;-74
2022/12/31 04:44:22;;;;;;;1.07;0.70;;;11.80;99.90;;;;;;4986107;28;20450;-74
2022/12/31 04:46:48;;;;;;;1.53;0.60;;;11.80;99.90;;;;;;4981668;28;20512;-74
2022/12/31 04:49:17;;;;;;;0.90;0.50;;;11.80;99.90;;;;;;4975796;28;20800;-74
2022/12/31 04:51:42;;;;;;;0.87;0.57;;;11.80;99.90;;;;;;4988594;28;20516;-75
2022/12/31 04:54:12;;;;;;;1.43;0.70;;;11.80;99.90;;;;;;4959809;28;20477;-74
2022/12/31 04:56:38;;;;;;;1.17;0.70;;;11.90;99.90;;;;;;4977975;28;20836;-74
2022/12/31 04:59:08;;;;;;;0.87;0.53;;;11.90;99.90;;;;;;4975394;28;20403;-74
2022/12/31 05:01:35;;;;;;;2.10;0.60;;;11.90;99.90;;;;;;4975758;28;20444;-75
2022/12/31 05:04:01;;;;;;;1.00;0.67;;;11.90;99.90;;;;;;4991889;28;20442;-74
2022/12/31 05:06:30;;;;;;;2.20;0.83;;;11.90;99.90;;;;;;4975645;28;20438;-75
2022/12/31 05:08:58;;;;;;;2.07;0.70;;;11.90;99.90;;;;;;4975955;28;20507;-75
2022/12/31 05:11:24;;;;;;;0.90;0.60;;;12.00;99.90;;;;;;4975752;28;20417;-74
2022/12/31 05:13:52;;;;;;;1.20;0.60;;;12.00;99.90;;;;;;4991998;28;20473;-74
2022/12/31 05:16:21;;;;;;;1.83;0.60;;;12.00;99.90;;;;;;4990994;28;20421;-75
2022/12/31 05:18:47;;;;;;;1.50;0.60;;;12.00;99.90;;;;;;4961659;28;20450;-75
2022/12/31 05:21:21;;;;;;;0.90;0.53;;;12.00;99.90;;;;;;4960364;28;20803;-75
2022/12/31 05:23:48;;;;;;;3.23;0.60;;;12.00;99.90;;;;;;4962243;28;20453;-75
2022/12/31 05:26:15;;;;;;;0.97;0.63;;;12.00;99.90;;;;;;4975510;28;20462;-75
2022/12/31 05:28:43;;;;;;;1.30;0.50;;;12.00;99.90;;;;;;4992910;28;20933;-75
2022/12/31 05:31:09;;;;;;;3.93;0.80;;;12.00;99.90;;;;;;4992094;28;20418;-75
2022/12/31 05:33:35;;;;;;;2.47;0.80;;;12.10;99.90;;;;;;4975182;28;20512;-75
2022/12/31 05:36:01;;;;;;;0.83;0.60;;;12.10;99.90;;;;;;4975626;28;20496;-75
2022/12/31 05:38:27;;;;;;;1.53;0.90;;;12.10;99.90;;;;;;5013900;28;20421;-75
2022/12/31 05:41:04;;;;;;;1.63;0.60;;;12.10;99.90;;;;;;4998010;28;20767;-74
2022/12/31 05:43:33;;;;;;;2.23;0.60;;;12.10;99.90;;;;;;4976493;28;20211;-75
2022/12/31 05:46:03;;;;;;;3.87;0.80;;;12.10;99.90;;;;;;4975263;28;20434;-74
2022/12/31 05:48:32;;;;;;;1.57;0.70;;;12.10;99.90;;;;;;4958821;28;20403;-74
2022/12/31 05:51:00;;;;;;;1.53;0.70;;;12.10;99.90;;;;;;4974428;28;20406;-74
2022/12/31 05:53:28;;;;;;;1.40;0.70;;;12.10;99.90;;;;;;4958790;28;20468;-74
2022/12/31 05:55:57;;;;;;;1.83;0.90;;;12.20;99.90;;;;;;4958736;28;20486;-75
2022/12/31 05:58:22;;;;;;;0.90;0.57;;;12.20;99.90;;;;;;4973501;28;20438;-74
2022/12/31 06:00:51;;;;;;;3.23;0.70;;;12.20;99.90;;;;;;4989787;28;20442;-74
2022/12/31 06:03:22;;;;;;;1.10;0.80;;;12.20;99.90;;;;;;4959596;28;20455;-74
2022/12/31 06:05:51;;;;;;;1.10;0.60;;;12.20;99.90;;;;;;4993683;28;20453;-75
2022/12/31 06:08:17;;;;;;;1.30;0.87;;;12.20;99.90;;;;;;4975720;28;20475;-75
2022/12/31 06:10:46;;;;;;;1.43;0.70;;;12.30;99.90;;;;;;4946577;28;20423;-75
2022/12/31 06:13:14;;;;;;;2.90;0.90;;;12.30;99.90;;;;;;4993211;28;20449;-75
2022/12/31 06:15:45;;;;;;;2.70;0.77;;;12.30;99.90;;;;;;4989649;28;20905;-74
2022/12/31 06:18:13;;;;;;;1.40;0.80;;;12.30;99.90;;;;;;4974253;28;20481;-74
2022/12/31 06:20:39;;;;;;;1.60;0.80;;;12.30;99.90;;;;;;4976472;28;20420;-75
2022/12/31 06:23:05;;;;;;;1.27;0.60;;;12.30;99.90;;;;;;4994952;28;20441;-75
2022/12/31 06:25:35;;;;;;;2.63;1.10;;;12.40;99.90;;;;;;4993623;28;20441;-74
2022/12/31 06:28:07;;;;;;;1.33;0.80;;;12.40;99.90;;;;;;4993723;28;20857;-74
2022/12/31 06:30:33;;;;;;;1.03;0.60;;;12.40;99.90;;;;;;4993137;28;20427;-75
2022/12/31 06:32:59;;;;;;;1.10;0.70;;;12.40;99.90;;;;;;4958823;28;20453;-75
2022/12/31 06:35:30;;;;;;;2.20;0.80;;;12.40;99.90;;;;;;4975016;28;20459;-75
2022/12/31 06:37:56;;;;;;;3.30;0.87;;;12.40;99.90;;;;;;4974106;28;20201;-74
2022/12/31 06:40:24;;;;;;;1.87;0.90;;;12.40;99.90;;;;;;4941862;28;20426;-74
2022/12/31 06:42:50;;;;;;;1.20;0.80;;;12.40;99.90;;;;;;4974947;28;20434;-75
2022/12/31 06:45:19;;;;;;;2.57;0.90;;;12.40;99.90;;;;;;4978000;28;20814;-74
2022/12/31 06:47:52;;;;;;;1.90;0.90;;;12.40;99.90;;;;;;4976791;28;20443;-74
2022/12/31 06:50:19;;;;;;;1.37;0.80;;;12.40;99.90;;;;;;4957899;28;20938;-74
2022/12/31 06:52:45;;;;;;;1.87;0.80;;;12.50;99.90;;;;;;4973931;28;20440;-74
2022/12/31 06:55:12;;;;;;;2.00;1.00;;;12.50;99.90;;;;;;4975731;28;20461;-75
2022/12/31 06:57:41;;;;;;;2.60;1.00;;;12.50;99.90;;;;;;4993611;28;20437;-74
2022/12/31 07:00:10;;;;;;;2.53;1.00;;;12.50;99.90;;;;;;4976724;28;20414;-75
2022/12/31 07:02:50;;;;;;;3.50;0.83;;;12.50;99.90;;;;;;4960817;28;20441;-75
2022/12/31 07:05:31;;;;;;;2.17;1.00;;;12.50;99.90;;;;;;4976681;28;20447;-74
2022/12/31 07:08:18;;;;;;;1.00;0.63;;;12.50;99.90;;;;;;4975650;28;20463;-75
2022/12/31 07:11:29;;;;;;;1.93;1.00;;;12.50;99.90;;;;;;4987726;28;20947;-74
2022/12/31 07:14:01;;;;;;;1.50;0.90;;;12.50;99.90;;;;;;4958963;28;20985;-75
2022/12/31 07:16:46;;;;;;;2.83;0.83;;;12.50;99.90;;;;;;4960347;28;20472;-74
2022/12/31 07:19:23;;;;;;;2.13;0.80;;;12.50;99.90;;;;;;4991747;28;20954;-74
2022/12/31 07:21:52;;;;;;;1.60;1.10;;;12.50;99.90;;;;;;4973150;28;20410;-75
2022/12/31 07:24:19;;;;;;;1.80;0.90;;;12.50;99.90;;;;;;4979656;28;20841;-74
2022/12/31 07:27:22;;;;;;;2.77;1.00;;;12.60;99.90;;;;;;4972996;28;20436;-74
2022/12/31 07:30:12;;;;;;;1.50;1.20;;;12.50;99.90;;;;;;4982000;28;20438;-75
2022/12/31 07:33:26;;;;;;;1.50;1.20;;;12.50;99.90;;;;;;4992507;28;20451;-75
2022/12/31 07:36:12;;;;;;;3.10;1.10;;;12.60;99.90;;;;;;4963133;28;20490;-75
2022/12/31 07:39:05;;;;;;;2.77;1.07;;;12.60;99.90;;;;;;4972922;28;20495;-74
2022/12/31 07:41:56;;;;;;;2.33;1.07;;;12.60;99.90;;;;;;4972736;28;20436;-74
2022/12/31 07:44:41;;;;;;;2.13;1.17;;;12.60;99.90;;;;;;4970522;28;20489;-75
2022/12/31 07:47:19;;;;;;;1.63;0.90;;;12.60;99.90;;;;;;4971466;28;20421;-74
2022/12/31 07:49:51;;;;;;;1.60;1.10;;;12.60;99.90;;;;;;4972744;28;20416;-74
2022/12/31 07:52:17;;;;;;;1.67;1.30;;;12.60;99.90;;;;;;4985422;28;20412;-75
2022/12/31 07:54:46;;;;;;;3.30;1.47;;;12.60;99.90;;;;;;4991535;28;20887;-75
2022/12/31 07:57:17;;;;;;;1.67;1.23;;;12.60;99.90;;;;;;4977099;28;20562;-74
2022/12/31 08:00:13;;;;;;;1.97;1.30;;;12.60;99.90;;;;;;4988328;28;20449;-75
2022/12/31 08:02:48;;;;;;;4.97;1.20;;;12.60;99.90;;;;;;4973623;28;20459;-75
2022/12/31 08:05:25;;;;;;;2.10;0.90;;;12.60;99.90;;;;;;4978768;28;20452;-74
2022/12/31 08:08:15;;;;;;;1.70;1.20;;;12.70;99.90;;;;;;4973649;28;20415;-76
2022/12/31 08:11:17;;;;;;;1.13;1.03;;;12.70;99.90;;;;;;4955162;28;20453;-75
2022/12/31 08:13:46;;;;;;;1.67;1.10;;;12.70;99.90;;;;;;4974195;28;20441;-78
2022/12/31 08:16:15;;;;;;;2.80;1.23;;;12.70;99.90;;;;;;4970529;28;20451;-78
2022/12/31 08:18:41;;;;;;;2.93;1.13;;;12.70;99.90;;;;;;4973650;28;20408;-78
2022/12/31 08:21:10;;;;;;;2.00;1.20;;;12.70;99.90;;;;;;4987722;28;20446;-79
2022/12/31 08:23:52;;;;;;;3.77;1.17;;;12.70;99.90;;;;;;4993312;28;20427;-78
2022/12/31 08:26:40;;;;;;;2.60;1.17;;;12.70;99.90;;;;;;4993151;28;20919;-78
2022/12/31 08:29:19;;;;;;;5.23;1.50;;;12.70;99.90;;;;;;4962027;28;20429;-78
2022/12/31 08:32:02;;;;;;;3.70;1.30;;;12.80;99.90;;;;;;4944663;28;20423;-78
2022/12/31 08:34:57;;;;;;;2.87;1.13;;;12.80;99.90;;;;;;4961680;28;20473;-78
2022/12/31 08:37:39;;;;;;;2.93;1.17;;;12.70;99.90;;;;;;4978091;28;20439;-78
2022/12/31 08:41:01;;;;;;;2.37;1.43;;;12.80;99.90;;;;;;4997111;28;20943;-77
2022/12/31 08:43:48;;;;;;;2.97;1.10;;;12.80;99.90;;;;;;4887772;29;20980;-78
2022/12/31 08:46:30;;;;;;;1.80;1.00;;;12.80;99.90;;;;;;4960910;28;20453;-78
2022/12/31 08:48:56;;;;;;;2.03;1.10;;;12.80;99.90;;;;;;4969717;28;20472;-77
2022/12/31 08:51:25;;;;;;;4.50;1.30;;;12.80;99.90;;;;;;4959443;28;20411;-77
2022/12/31 08:53:52;;;;;;;1.80;1.43;;;12.80;99.90;;;;;;4975456;28;20463;-77
2022/12/31 08:56:25;;;;;;;4.20;1.10;;;12.80;99.90;;;;;;4994502;28;20403;-76
2022/12/31 08:59:16;;;;;;;1.43;1.30;;;12.80;99.90;;;;;;4977925;28;20483;-78
2022/12/31 09:01:54;;;;;;;1.97;1.30;;;12.90;99.90;;;;;;4978462;28;20557;-77
2022/12/31 09:04:43;;;;;;;2.43;1.00;;;12.90;99.90;;;;;;4988226;28;20471;-77
2022/12/31 09:07:11;;;;;;;1.30;1.20;;;12.90;99.90;;;;;;4994682;28;20573;-77
2022/12/31 09:09:52;;;;;;;3.13;1.60;;;12.90;99.90;;;;;;4979656;28;20429;-78
2022/12/31 09:12:35;;;;;;;3.57;1.50;;;12.90;99.90;;;;;;4976061;28;20418;-77
2022/12/31 09:15:17;;;;;;;2.03;1.10;;;12.90;99.90;;;;;;4990711;28;20475;-77
2022/12/31 09:17:43;;;;;;;3.80;1.17;;;12.90;99.90;;;;;;4975637;28;20991;-75
2022/12/31 09:20:28;;;;;;;2.50;1.10;;;12.90;99.90;;;;;;4975387;28;20424;-76
2022/12/31 09:22:56;;;;;;;2.50;1.17;;;12.90;99.90;;;;;;4978950;28;20468;-77
2022/12/31 09:25:28;;;;;;;2.10;1.30;;;12.90;99.90;;;;;;4975331;28;20426;-77
2022/12/31 09:28:06;;;;;;;1.90;1.10;;;13.00;99.90;;;;;;4985187;28;20467;-76
2022/12/31 09:31:02;;;;;;;3.00;1.40;;;13.00;99.90;;;;;;4984208;28;20446;-78
2022/12/31 09:33:51;;;;;;;3.00;1.37;;;13.00;99.90;;;;;;4977702;28;20539;-79
2022/12/31 09:36:37;;;;;;;3.90;2.23;;;13.00;99.90;;;;;;4979219;28;20439;-77
2022/12/31 09:39:18;;;;;;;3.43;1.00;;;13.00;99.90;;;;;;4998583;28;20457;-79
2022/12/31 09:42:12;;;;;;;4.13;1.33;;;13.00;99.90;;;;;;4978475;28;20404;-77
2022/12/31 09:44:56;;;;;;;2.90;1.80;;;13.00;99.90;;;;;;4979082;28;20454;-76
2022/12/31 09:47:38;;;;;;;3.20;1.77;;;13.00;99.90;;;;;;4976002;28;20412;-76
2022/12/31 09:50:31;;;;;;;2.47;1.40;;;13.00;99.90;;;;;;4975465;28;20413;-76
2022/12/31 09:53:42;;;;;;;2.13;1.30;;;13.10;99.90;;;;;;4975394;28;20525;-77
2022/12/31 09:56:31;;;;;;;1.23;0.90;;;13.10;99.90;;;;;;4959429;28;20408;-77
2022/12/31 09:59:04;;;;;;;2.97;1.50;;;13.10;99.90;;;;;;4978022;28;20815;-78
2022/12/31 10:02:00;;;;;;;2.57;1.23;;;13.10;99.90;;;;;;4985341;28;20424;-79
2022/12/31 10:04:56;;;;;;;3.50;1.30;;;13.10;99.90;;;;;;4975490;28;20607;-78
2022/12/31 10:07:37;;;;;;;2.23;1.40;;;13.10;99.90;;;;;;4996638;28;20502;-78
2022/12/31 10:10:19;;;;;;;1.90;1.30;;;13.10;99.90;;;;;;4991952;28;20455;-77
2022/12/31 10:13:03;;;;;;;3.30;1.70;;;13.10;99.90;;;;;;4981292;28;20959;-77
2022/12/31 10:15:38;;;;;;;4.27;1.70;;;13.10;99.90;;;;;;4986652;28;20456;-77
2022/12/31 10:18:43;;;;;;;3.90;1.70;;;13.10;99.90;;;;;;4957492;28;20459;-78
2022/12/31 10:21:37;;;;;;;2.50;1.33;;;13.10;99.90;;;;;;4973957;28;20953;-77
2022/12/31 10:24:27;;;;;;;2.67;1.40;;;13.20;99.90;;;;;;4978509;28;20474;-78
2022/12/31 10:27:30;;;;;;;3.93;1.87;;;13.20;99.90;;;;;;4977203;28;20445;-77
2022/12/31 10:30:16;;;;;;;2.53;1.80;;;13.20;99.90;;;;;;4978009;28;20525;-77
2022/12/31 10:33:17;;;;;;;2.50;1.30;;;13.20;99.90;;;;;;4986301;28;20991;-78
2022/12/31 10:35:55;;;;;;;2.97;1.43;;;13.20;99.90;;;;;;4953985;28;20474;-77
2022/12/31 10:38:52;;;;;;;2.13;1.40;;;13.20;99.90;;;;;;4975990;28;20442;-77
2022/12/31 10:41:19;;;;;;;2.73;1.47;;;13.20;99.90;;;;;;4994001;28;20459;-78
2022/12/31 10:44:22;;;;;;;2.60;1.80;;;13.20;99.90;;;;;;4988270;28;20456;-77
2022/12/31 10:47:02;;;;;;;4.83;1.43;;;13.20;99.90;;;;;;4975444;28;20453;-77
2022/12/31 10:50:07;;;;;;;3.87;1.30;;;13.20;99.90;;;;;;4983457;28;20472;-77
2022/12/31 10:52:44;;;;;;;1.63;1.30;;;13.30;99.90;;;;;;4989739;28;20445;-77
2022/12/31 10:56:05;;;;;;;2.93;1.40;;;13.30;99.90;;;;;;4990298;28;20464;-77
2022/12/31 10:59:04;;;;;;;1.90;1.60;;;13.30;99.90;;;;;;4916503;29;20418;-78
2022/12/31 11:01:46;;;;;;;2.60;1.40;;;13.30;99.90;;;;;;4977806;28;20489;-78
2022/12/31 11:04:36;;;;;;;8.30;1.63;;;13.30;99.90;;;;;;4993591;28;20446;-78
2022/12/31 11:07:14;;;;;;;4.00;1.60;;;13.30;99.90;;;;;;4975231;28;20560;-77
2022/12/31 11:10:01;;;;;;;3.17;1.30;;;13.30;99.90;;;;;;4979994;28;20548;-76
2022/12/31 11:13:08;;;;;;;3.90;1.83;;;13.30;99.90;;;;;;4976848;28;20597;-76
2022/12/31 11:16:11;;;;;;;1.90;1.50;;;13.30;99.90;;;;;;4963822;28;20506;-76
2022/12/31 11:18:58;;;;;;;1.50;1.30;;;13.40;99.90;;;;;;4992961;28;20601;-72
2022/12/31 11:21:39;;;;;;;3.33;1.37;;;13.40;99.90;;;;;;4993679;28;20412;-72
2022/12/31 11:24:17;;;;;;;4.87;1.60;;;13.40;99.90;;;;;;4974833;28;20842;-72
2022/12/31 11:26:55;;;;;;;2.40;1.03;;;13.40;99.90;;;;;;4991387;28;21066;-72
2022/12/31 11:29:43;;;;;;;2.90;1.47;;;13.40;99.90;;;;;;4992427;28;20402;-72
2022/12/31 11:32:16;;;;;;;2.93;1.60;;;13.40;99.90;;;;;;4991911;28;20453;-72
2022/12/31 11:34:59;;;;;;;1.87;1.63;;;13.40;99.90;;;;;;4993879;28;20466;-72
2022/12/31 11:38:19;;;;;;;3.10;1.77;;;13.40;99.90;;;;;;4976334;28;20439;-72
2022/12/31 11:41:21;;;;;;;3.30;1.90;;;13.40;99.90;;;;;;4968271;28;20441;-72
2022/12/31 11:44:19;;;;;;;4.00;1.80;;;13.40;99.90;;;;;;4992709;28;20950;-72
2022/12/31 11:47:10;;;;;;;3.90;2.07;;;13.40;99.90;;;;;;4992629;28;20403;-72
2022/12/31 11:49:36;;;;;;;5.40;2.23;;;13.50;99.90;;;;;;4976855;28;20417;-72
2022/12/31 11:52:10;;;;;;;2.73;1.87;;;13.40;99.90;;;;;;4993009;28;20420;-72
2022/12/31 11:55:00;;;;;;;4.30;1.67;;;13.50;99.90;;;;;;4975601;28;20476;-72
2022/12/31 11:57:33;;;;;;;3.07;1.80;;;13.50;99.90;;;;;;4976560;28;20427;-72
2022/12/31 12:00:03;;;;;;;2.40;1.70;;;13.50;99.90;;;;;;4992965;28;20453;-72
2022/12/31 12:02:47;;;;;;;4.57;1.80;;;13.50;99.90;;;;;;4992755;28;20449;-72
2022/12/31 12:05:23;;;;;;;3.53;1.40;;;13.50;99.90;;;;;;4976509;28;20447;-72
2022/12/31 12:07:51;;;;;;;6.47;3.50;;;13.50;99.90;;;;;;4979463;28;20429;-72
2022/12/31 12:10:29;;;;;;;1.77;1.10;;;13.50;99.90;;;;;;4996655;28;20411;-72
2022/12/31 12:12:56;;;;;;;5.13;2.20;;;13.50;99.90;;;;;;4997715;28;20458;-72
2022/12/31 12:15:26;;;;;;;4.53;1.70;;;13.50;99.90;;;;;;4996593;28;20467;-72
2022/12/31 12:17:58;;;;;;;4.47;1.43;;;13.50;99.90;;;;;;4997815;28;20435;-72
2022/12/31 12:20:34;;;;;;;3.30;2.17;;;13.50;99.90;;;;;;4980512;28;20497;-72
2022/12/31 12:23:12;;;;;;;4.60;1.63;;;13.60;99.90;;;;;;4997803;28;20525;-72
2022/12/31 12:25:42;;;;;;;3.43;1.60;;;13.60;99.90;;;;;;4997605;28;20404;-72
2022/12/31 12:28:18;;;;;;;3.93;1.40;;;13.60;99.90;;;;;;4981060;28;20429;-72
2022/12/31 12:31:04;;;;;;;2.97;1.70;;;13.60;99.90;;;;;;4984015;28;20439;-72
2022/12/31 12:33:42;;;;;;;2.50;1.60;;;13.60;99.90;;;;;;4960858;28;20444;-74
2022/12/31 12:36:10;;;;;;;2.90;1.60;;;13.60;99.90;;;;;;4977051;28;20596;-72
2022/12/31 12:38:37;;;;;;;3.17;1.27;;;13.60;99.90;;;;;;4976502;28;20497;-73
2022/12/31 12:41:10;;;;;;;3.70;1.83;;;13.60;99.90;;;;;;4961137;28;20428;-73
2022/12/31 12:43:37;;;;;;;3.30;1.37;;;13.60;99.90;;;;;;4976450;28;20431;-72
2022/12/31 12:46:14;;;;;;;3.10;1.80;;;13.60;99.90;;;;;;4960532;28;20814;-73
2022/12/31 12:48:43;;;;;;;2.13;1.50;;;13.60;99.90;;;;;;4960268;28;20482;-72
2022/12/31 12:51:30;;;;;;;1.80;1.40;;;13.60;99.90;;;;;;4976667;28;20844;-72
2022/12/31 12:54:20;;;;;;;5.40;1.70;;;13.70;99.90;;;;;;4976153;28;20446;-72
2022/12/31 12:57:08;;;;;;;2.80;1.50;;;13.60;99.90;;;;;;4960291;28;20452;-72
2022/12/31 12:59:52;;;;;;;8.20;1.90;;;13.60;99.90;;;;;;4976535;28;20413;-72
2022/12/31 13:03:02;;;;;;;3.50;1.30;;;13.70;99.90;;;;;;4960029;28;20847;-72
2022/12/31 13:05:49;;;;;;;4.40;1.70;;;13.70;99.90;;;;;;4886622;29;20458;-72
2022/12/31 13:08:34;;;;;;;2.50;1.37;;;13.70;99.90;;;;;;4901879;29;20416;-72
2022/12/31 13:11:25;;;;;;;3.23;1.33;;;13.70;99.90;;;;;;4917623;29;20424;-72
2022/12/31 13:14:20;;;;;;;3.60;1.93;;;13.70;99.90;;;;;;4901925;29;20971;-72
2022/12/31 13:17:20;;;;;;;3.40;1.70;;;13.70;99.90;;;;;;4901783;29;20504;-72
2022/12/31 13:20:14;;;;;;;3.27;1.47;;;13.70;99.90;;;;;;4917106;29;20839;-72
2022/12/31 13:22:59;;;;;;;4.30;1.37;;;13.80;99.90;;;;;;4917723;29;20465;-72
2022/12/31 13:25:27;;;;;;;3.40;2.10;;;13.80;99.90;;;;;;4901858;29;20489;-72
2022/12/31 13:27:59;;;;;;;3.33;2.10;;;13.80;99.90;;;;;;4901956;29;20419;-72
2022/12/31 13:30:34;;;;;;;3.50;1.80;;;13.80;99.90;;;;;;4917614;29;20438;-72
2022/12/31 13:33:23;;;;;;;3.03;1.57;;;13.80;99.90;;;;;;4917432;29;20455;-72
2022/12/31 13:36:06;;;;;;;4.87;1.40;;;13.80;99.90;;;;;;4924376;28;20487;-72
2022/12/31 13:38:43;;;;;;;4.67;2.00;;;13.80;99.90;;;;;;4975804;28;20483;-72
2022/12/31 13:41:21;;;;;;;2.63;1.10;;;13.80;99.90;;;;;;4976810;28;20427;-72
2022/12/31 13:44:07;;;;;;;4.27;1.50;;;13.80;99.90;;;;;;4975511;28;20506;-72
2022/12/31 13:46:38;;;;;;;3.70;1.87;;;13.80;99.90;;;;;;4976763;28;20508;-72
2022/12/31 13:49:16;;;;;;;2.53;1.60;;;13.80;99.90;;;;;;4959591;28;20420;-72
2022/12/31 13:52:20;;;;;;;11.17;1.87;;;13.80;99.90;;;;;;4976884;28;20420;-72